TimeCST,TemperatureF,Dew PointF,Humidity,Sea Level PressureIn,VisibilityMPH,Wind Direction,Wind SpeedMPH,Gust SpeedMPH,PrecipitationIn,Events,Conditions,WindDirDegrees,DateUTC
12:14 AM,26.6,17.6,69,30.22,10.0,SE,10.4,-,N/A,,Mostly Cloudy,130,2013-01-18 06:14:00
12:35 AM,26.6,17.6,69,30.21,10.0,SE,10.4,-,N/A,,Overcast,130,2013-01-18 06:35:00
12:55 AM,26.6,17.6,69,30.20,10.0,ESE,10.4,-,N/A,,Overcast,120,2013-01-18 06:55:00
1:14 AM,26.6,17.6,69,30.18,10.0,SE,11.5,-,N/A,,Scattered Clouds,130,2013-01-18 07:14:00
1:35 AM,26.6,17.6,69,30.17,10.0,SE,11.5,-,N/A,,Clear,130,2013-01-18 07:35:00
1:55 AM,26.6,17.6,69,30.15,10.0,SE,11.5,-,N/A,,Clear,130,2013-01-18 07:55:00
2:15 AM,26.6,19.4,74,30.13,10.0,SE,13.8,-,N/A,,Clear,140,2013-01-18 08:15:00
2:35 AM,28.4,19.4,69,30.11,10.0,SE,13.8,-,N/A,,Clear,140,2013-01-18 08:35:00
2:55 AM,28.4,19.4,69,30.09,10.0,SE,13.8,-,N/A,,Clear,140,2013-01-18 08:55:00
3:15 AM,30.2,21.2,69,30.08,10.0,SSE,12.7,-,N/A,,Clear,150,2013-01-18 09:15:00
3:34 AM,30.2,23.0,75,30.06,10.0,SSE,13.8,-,N/A,,Clear,150,2013-01-18 09:34:00
3:55 AM,30.2,24.8,80,30.03,10.0,South,16.1,21.9,N/A,,Clear,170,2013-01-18 09:55:00
4:15 AM,30.2,24.8,80,30.01,10.0,South,17.3,23.0,N/A,,Clear,170,2013-01-18 10:15:00
4:35 AM,32.0,24.8,75,30.00,7.0,South,17.3,26.5,N/A,,Clear,170,2013-01-18 10:35:00
4:55 AM,30.2,24.8,80,29.98,7.0,South,18.4,24.2,N/A,,Clear,170,2013-01-18 10:55:00
5:15 AM,30.2,24.8,80,29.96,7.0,South,16.1,-,N/A,,Clear,170,2013-01-18 11:15:00
5:35 AM,32.0,24.8,75,29.94,7.0,South,17.3,-,N/A,,Clear,180,2013-01-18 11:35:00
5:55 AM,33.8,26.6,75,29.93,10.0,South,18.4,-,N/A,,Clear,180,2013-01-18 11:55:00
6:14 AM,33.8,26.6,75,29.91,10.0,South,18.4,-,N/A,,Clear,180,2013-01-18 12:14:00
6:35 AM,33.8,26.6,75,29.91,10.0,South,12.7,-,N/A,,Clear,180,2013-01-18 12:35:00
6:55 AM,33.8,26.6,75,29.92,10.0,Calm,Calm,-,N/A,,Clear,0,2013-01-18 12:55:00
7:15 AM,33.8,26.6,75,29.90,10.0,South,11.5,-,N/A,,Clear,190,2013-01-18 13:15:00
7:35 AM,35.6,26.6,70,29.90,10.0,Calm,Calm,-,N/A,,Clear,0,2013-01-18 13:35:00
7:55 AM,35.6,26.6,70,29.90,10.0,Calm,Calm,-,N/A,,Clear,0,2013-01-18 13:55:00
8:14 AM,35.6,26.6,70,29.88,10.0,South,10.4,-,N/A,,Clear,180,2013-01-18 14:14:00
8:35 AM,33.8,24.8,70,29.88,10.0,Calm,Calm,-,N/A,,Clear,0,2013-01-18 14:35:00
8:55 AM,35.6,26.6,70,29.88,10.0,Calm,Calm,-,N/A,,Clear,0,2013-01-18 14:55:00
9:15 AM,37.4,26.6,65,29.87,10.0,Calm,Calm,-,N/A,,Clear,0,2013-01-18 15:15:00
9:35 AM,39.2,26.6,61,29.86,10.0,SSW,11.5,16.1,N/A,,Clear,200,2013-01-18 15:35:00
9:55 AM,39.2,26.6,61,29.85,10.0,SSW,11.5,17.3,N/A,,Clear,200,2013-01-18 15:55:00
10:15 AM,41.0,26.6,57,29.84,10.0,SSW,10.4,18.4,N/A,,Clear,200,2013-01-18 16:15:00
10:35 AM,42.8,26.6,53,29.83,10.0,SSW,12.7,16.1,N/A,,Clear,200,2013-01-18 16:35:00
10:54 AM,42.8,26.6,53,29.82,10.0,SSW,13.8,19.6,N/A,,Clear,200,2013-01-18 16:54:00
11:15 AM,42.8,26.6,53,29.81,10.0,SSW,13.8,23.0,N/A,,Clear,210,2013-01-18 17:15:00
11:35 AM,44.6,26.6,49,29.80,10.0,SW,20.7,27.6,N/A,,Clear,220,2013-01-18 17:35:00
11:55 AM,44.6,26.6,49,29.79,10.0,SW,20.7,29.9,N/A,,Clear,220,2013-01-18 17:55:00
12:15 PM,44.6,26.6,49,29.78,10.0,SSW,19.6,26.5,N/A,,Clear,210,2013-01-18 18:15:00
12:35 PM,44.6,26.6,49,29.77,10.0,SW,17.3,24.2,N/A,,Clear,220,2013-01-18 18:35:00
12:55 PM,46.4,28.4,50,29.76,10.0,SW,16.1,25.3,N/A,,Clear,220,2013-01-18 18:55:00
1:15 PM,46.4,28.4,50,29.78,10.0,WSW,12.7,-,N/A,,Clear,240,2013-01-18 19:15:00
1:35 PM,46.4,26.6,46,29.77,10.0,WSW,15.0,-,N/A,,Clear,250,2013-01-18 19:35:00
1:55 PM,46.4,28.4,50,29.78,10.0,West,9.2,-,N/A,,Clear,260,2013-01-18 19:55:00
2:15 PM,46.4,26.6,46,29.77,10.0,WSW,12.7,-,N/A,,Clear,250,2013-01-18 20:15:00
2:35 PM,44.6,28.4,53,29.78,10.0,WSW,9.2,-,N/A,,Clear,250,2013-01-18 20:35:00
2:55 PM,46.4,28.4,50,29.78,10.0,WSW,11.5,-,N/A,,Clear,250,2013-01-18 20:55:00
3:15 PM,46.4,28.4,50,29.78,10.0,WSW,10.4,-,N/A,,Clear,240,2013-01-18 21:15:00
3:35 PM,46.4,30.2,53,29.78,10.0,WSW,12.7,-,N/A,,Clear,240,2013-01-18 21:35:00
3:55 PM,44.6,28.4,53,29.79,10.0,WSW,11.5,-,N/A,,Clear,250,2013-01-18 21:55:00
4:14 PM,44.6,28.4,53,29.80,10.0,WSW,10.4,16.1,N/A,,Clear,250,2013-01-18 22:14:00
4:35 PM,42.8,28.4,57,29.81,10.0,WSW,10.4,-,N/A,,Clear,250,2013-01-18 22:35:00
4:55 PM,42.8,28.4,57,29.81,10.0,WSW,8.1,-,N/A,,Clear,250,2013-01-18 22:55:00
5:14 PM,39.2,28.4,65,29.81,10.0,Calm,Calm,-,N/A,,Clear,0,2013-01-18 23:14:00
5:35 PM,37.4,28.4,70,29.82,10.0,Calm,Calm,-,N/A,,Clear,0,2013-01-18 23:35:00
5:55 PM,39.2,30.2,70,29.82,10.0,Calm,Calm,-,N/A,,Clear,0,2013-01-18 23:55:00
6:15 PM,39.2,28.4,65,29.82,10.0,Calm,Calm,-,N/A,,Clear,0,2013-01-19 00:15:00
6:35 PM,39.2,28.4,65,29.83,10.0,SW,9.2,-,N/A,,Clear,230,2013-01-19 00:35:00
6:55 PM,39.2,28.4,65,29.83,10.0,SW,10.4,-,N/A,,Clear,230,2013-01-19 00:55:00
7:15 PM,37.4,30.2,75,29.83,10.0,SW,10.4,-,N/A,,Clear,230,2013-01-19 01:15:00
7:35 PM,37.4,28.4,70,29.84,10.0,Calm,Calm,-,N/A,,Clear,0,2013-01-19 01:35:00
7:55 PM,37.4,30.2,75,29.84,10.0,Calm,Calm,-,N/A,,Clear,0,2013-01-19 01:55:00
8:15 PM,35.6,28.4,75,29.83,10.0,Calm,Calm,-,N/A,,Clear,0,2013-01-19 02:15:00
8:35 PM,35.6,28.4,75,29.83,10.0,Calm,Calm,-,N/A,,Clear,0,2013-01-19 02:35:00
8:55 PM,35.6,28.4,75,29.83,10.0,Calm,Calm,-,N/A,,Clear,0,2013-01-19 02:55:00
9:35 PM,35.6,28.4,75,29.82,10.0,Calm,Calm,-,N/A,,Clear,0,2013-01-19 03:35:00
9:55 PM,37.4,30.2,75,29.81,10.0,Calm,Calm,-,N/A,,Clear,0,2013-01-19 03:55:00
10:15 PM,37.4,28.4,70,29.81,10.0,Calm,Calm,-,N/A,,Clear,0,2013-01-19 04:15:00
10:34 PM,37.4,28.4,70,29.81,10.0,Calm,Calm,-,N/A,,Clear,0,2013-01-19 04:34:00
10:55 PM,37.4,28.4,70,29.81,10.0,Calm,Calm,-,N/A,,Clear,0,2013-01-19 04:55:00
11:15 PM,37.4,28.4,70,29.80,10.0,Calm,Calm,-,N/A,,Clear,0,2013-01-19 05:15:00
11:35 PM,37.4,28.4,70,29.80,10.0,Calm,Calm,-,N/A,,Clear,0,2013-01-19 05:35:00
11:55 PM,37.4,28.4,70,29.79,10.0,Calm,Calm,-,N/A,,Clear,0,2013-01-19 05:55:00